Time;durP1;ratioP1;P1;durP2;ratioP2;P2;SDS_P1;SDS_P2;PMS_P1;PMS_P2;Temp;Humidity;BMP_temperature;BMP_pressure;BME280_temperature;BME280_humidity;BME280_pressure;Samples;Min_cycle;Max_cycle;Signal;HPM_P1;HPM_P2
2022/03/09 00:03:02;;;;;;;103.02;50.10;;;;;;;-1.16;65.52;101174.82;2221103;80;31392;-70
2022/03/09 00:06:03;;;;;;;104.97;47.50;;;;;;;-1.12;65.55;101177.50;2221203;80;33745;-70
2022/03/09 00:09:05;;;;;;;123.55;56.90;;;;;;;-1.06;65.59;101178.00;2221143;80;29013;-70
2022/03/09 00:12:09;;;;;;;116.12;52.30;;;;;;;-1.00;65.68;101178.55;2219400;80;27606;-73
2022/03/09 00:15:11;;;;;;;121.80;52.67;;;;;;;-0.97;65.67;101171.98;2221143;79;28652;-69
2022/03/09 00:18:13;;;;;;;120.85;53.40;;;;;;;-0.92;65.67;101171.20;2220932;80;31100;-70
2022/03/09 00:21:15;;;;;;;115.28;53.13;;;;;;;-0.88;65.61;101169.89;2212735;80;33006;-69
2022/03/09 00:24:20;;;;;;;105.12;49.48;;;;;;;-0.86;65.59;101167.75;2185390;80;29072;-69
2022/03/09 00:27:25;;;;;;;106.17;50.35;;;;;;;-0.81;65.58;101169.97;2185685;81;27696;-69
2022/03/09 00:30:28;;;;;;;117.50;52.38;;;;;;;-0.79;65.58;101166.93;2185325;81;28751;-71
2022/03/09 00:33:30;;;;;;;114.90;52.27;;;;;;;-0.77;65.64;101166.52;2220240;80;30858;-71
2022/03/09 00:36:32;;;;;;;117.65;53.73;;;;;;;-0.72;65.72;101164.38;2221192;80;33727;-73
2022/03/09 00:39:33;;;;;;;114.85;53.13;;;;;;;-0.68;65.80;101166.19;2221244;80;29807;-72
2022/03/09 00:42:40;;;;;;;128.12;55.67;;;;;;;-0.67;65.81;101155.67;2197429;80;27729;-72
2022/03/09 00:45:42;;;;;;;131.72;60.78;;;;;;;-0.64;65.72;101153.48;2185020;81;28541;-81
2022/03/09 00:48:44;;;;;;;132.85;60.35;;;;;;;-0.64;65.58;101149.13;2185312;80;31179;-72
2022/03/09 00:51:46;;;;;;;139.60;63.75;;;;;;;-0.64;65.49;101148.22;2198695;80;33063;-72
2022/03/09 00:54:47;;;;;;;141.65;66.02;;;;;;;-0.67;65.43;101145.14;2220945;80;29059;-72
2022/03/09 00:57:49;;;;;;;157.62;68.87;;;;;;;-0.68;65.39;101140.74;2221376;80;27602;-71
2022/03/09 01:00:51;;;;;;;200.20;87.67;;;;;;;-0.72;65.33;101132.81;2218907;80;28859;-71
2022/03/09 01:03:52;;;;;;;270.88;115.95;;;;;;;-0.79;65.26;101135.36;2185561;80;31007;-72
2022/03/09 01:06:54;;;;;;;287.72;122.05;;;;;;;-0.88;65.26;101131.75;2185079;80;33092;-73
2022/03/09 01:09:56;;;;;;;246.00;104.97;;;;;;;-0.96;65.35;101127.30;2185319;81;29826;-70
2022/03/09 01:12:58;;;;;;;193.45;83.40;;;;;;;-1.04;65.44;101133.34;2212238;80;27598;-71
2022/03/09 01:15:59;;;;;;;196.45;85.25;;;;;;;-1.12;65.60;101138.06;2221531;79;29616;-71
2022/03/09 01:19:01;;;;;;;154.85;67.35;;;;;;;-1.18;65.68;101137.11;2223804;80;31890;-77
2022/03/09 01:22:03;;;;;;;151.50;67.10;;;;;;;-1.24;65.80;101142.73;2205255;80;33001;-73
2022/03/09 01:25:06;;;;;;;138.82;62.17;;;;;;;-1.28;65.91;101138.33;2181659;80;29789;-71
2022/03/09 01:28:08;;;;;;;115.72;56.10;;;;;;;-1.33;66.04;101133.43;2181377;81;27655;-71
2022/03/09 01:31:10;;;;;;;113.72;55.40;;;;;;;-1.37;66.12;101138.19;2186797;80;28655;-70
2022/03/09 01:34:11;;;;;;;125.12;55.73;;;;;;;-1.38;66.13;101139.05;2206243;80;31020;-77
2022/03/09 01:37:13;;;;;;;121.13;56.58;;;;;;;-1.39;66.15;101129.39;2180581;81;33022;-70
2022/03/09 01:40:16;;;;;;;115.37;52.95;;;;;;;-1.40;66.21;101135.52;2180649;81;29001;-70
2022/03/09 01:43:18;;;;;;;111.95;53.48;;;;;;;-1.42;66.26;101132.88;2183550;80;27673;-71
2022/03/09 01:46:20;;;;;;;113.17;51.37;;;;;;;-1.44;66.38;101133.28;2174999;81;28634;-79
2022/03/09 01:49:22;;;;;;;115.57;53.90;;;;;;;-1.46;66.20;101129.75;2167562;82;31169;-70
2022/03/09 01:52:24;;;;;;;108.12;49.83;;;;;;;-1.50;66.24;101127.97;2175038;80;33011;-70
2022/03/09 01:55:29;;;;;;;112.10;51.75;;;;;;;-1.50;66.27;101125.75;2220474;80;29517;-75
2022/03/09 01:58:31;;;;;;;118.00;50.92;;;;;;;-1.51;66.22;101133.19;2182298;80;27688;-71
2022/03/09 02:01:34;;;;;;;115.92;53.10;;;;;;;-1.57;66.33;101128.73;2155178;80;28638;-71
2022/03/09 02:04:36;;;;;;;103.30;50.73;;;;;;;-1.61;66.39;101133.07;2180990;81;31855;-81
2022/03/09 02:10:58;;;;;;;113.80;51.10;;;;;;;-1.67;66.56;101122.91;2178558;80;29381;-77
2022/03/09 02:14:01;;;;;;;108.42;49.80;;;;;;;-1.70;66.61;101133.83;2179380;81;27739;-72
2022/03/09 02:17:07;;;;;;;106.25;49.00;;;;;;;-1.72;66.83;101122.41;2178644;81;28869;-72
2022/03/09 02:20:10;;;;;;;109.07;49.08;;;;;;;-1.73;66.85;101123.27;2182335;81;31210;-71
2022/03/09 02:23:12;;;;;;;115.15;50.17;;;;;;;-1.74;66.96;101114.94;2216384;79;33012;-71
2022/03/09 02:26:14;;;;;;;107.50;46.37;;;;;;;-1.74;67.07;101116.69;2210330;79;30143;-78
2022/03/09 02:29:16;;;;;;;102.78;47.03;;;;;;;-1.77;67.03;101113.57;2187351;81;27723;-71
2022/03/09 02:32:21;;;;;;;102.25;48.92;;;;;;;-1.78;67.11;101108.31;2186015;79;28768;-74
2022/03/09 02:35:25;;;;;;;;;;;;;;;-1.79;67.17;101103.91;2191004;79;31806;-71
2022/03/09 02:38:27;;;;;;;105.72;46.48;;;;;;;-1.81;67.02;101101.69;2186865;81;32975;-71
2022/03/09 02:41:33;;;;;;;94.05;45.63;;;;;;;-1.84;67.09;101099.91;2193678;79;29318;-71
2022/03/09 02:44:32;;;;;;;104.90;45.65;;;;;;;-1.85;67.17;101104.71;2226921;79;27605;-71
2022/03/09 02:47:34;;;;;;;96.35;44.30;;;;;;;-1.88;67.10;101104.66;2200561;79;28684;-71
2022/03/09 02:50:36;;;;;;;96.10;44.75;;;;;;;-1.92;67.20;101105.06;2227168;79;31043;-72
2022/03/09 02:53:38;;;;;;;98.97;44.20;;;;;;;-1.93;67.35;101109.85;2193851;79;32909;-73
2022/03/09 02:56:40;;;;;;;107.12;44.80;;;;;;;-1.94;67.45;101105.88;2189954;79;29373;-72
2022/03/09 02:59:41;;;;;;;106.97;45.58;;;;;;;-1.95;67.55;101106.31;2183286;80;27706;-72
2022/03/09 03:02:43;;;;;;;98.30;44.30;;;;;;;-1.95;67.62;101101.48;2207242;79;28522;-72
2022/03/09 03:05:45;;;;;;;99.85;43.42;;;;;;;-1.97;67.59;101100.16;2216708;79;31870;-71
2022/03/09 03:08:46;;;;;;;97.08;43.70;;;;;;;-1.98;67.64;101095.77;2187717;81;33902;-74
2022/03/09 03:11:48;;;;;;;97.60;44.00;;;;;;;-2.00;67.66;101097.07;2185305;79;29306;-79
2022/03/09 03:14:50;;;;;;;89.32;41.65;;;;;;;-2.01;67.81;101095.72;2187194;80;27738;-73
2022/03/09 03:17:52;;;;;;;98.03;42.60;;;;;;;-2.02;67.79;101095.26;2183297;81;29973;-81
2022/03/09 03:20:56;;;;;;;104.60;43.28;;;;;;;-2.04;67.87;101103.12;2200117;80;32100;-80
2022/03/09 03:23:58;;;;;;;92.25;41.73;;;;;;;-2.05;67.92;101104.39;2223792;79;32963;-72
2022/03/09 03:27:00;;;;;;;97.72;44.93;;;;;;;-2.07;67.97;101103.07;2223777;79;29439;-70
2022/03/09 03:30:02;;;;;;;93.47;41.50;;;;;;;-2.08;68.00;101099.99;2217337;79;28290;-79
2022/03/09 03:33:04;;;;;;;86.82;41.05;;;;;;;-2.10;68.00;101100.84;2181288;81;29532;-70
2022/03/09 03:36:06;;;;;;;95.77;41.10;;;;;;;-2.11;67.99;101103.88;2180963;81;31994;-72
2022/03/09 03:39:08;;;;;;;96.08;42.50;;;;;;;-2.14;68.01;101099.47;2177686;81;33886;-76
2022/03/09 03:42:10;;;;;;;85.83;41.53;;;;;;;-2.15;68.11;101095.08;2180516;80;29503;-81
2022/03/09 03:45:12;;;;;;;86.00;41.80;;;;;;;-2.17;68.17;101100.73;2181332;81;27645;-71
2022/03/09 03:48:13;;;;;;;101.12;43.63;;;;;;;-2.18;68.17;101099.41;2181593;81;28639;-83
2022/03/09 03:51:15;;;;;;;86.10;39.65;;;;;;;-2.21;68.33;101100.66;2204257;80;31830;-73
2022/03/09 03:54:19;;;;;;;88.33;41.90;;;;;;;-2.24;68.34;101104.14;2223792;79;33976;-73
2022/03/09 03:57:21;;;;;;;91.30;41.88;;;;;;;-2.25;68.43;101106.72;2223659;80;29561;-72
2022/03/09 04:00:23;;;;;;;88.85;39.45;;;;;;;-2.27;68.51;101110.64;2213719;79;27700;-71
2022/03/09 04:03:25;;;;;;;92.57;41.75;;;;;;;-2.27;68.51;101113.27;2181394;80;28630;-75
2022/03/09 04:06:26;;;;;;;92.17;40.00;;;;;;;-2.30;68.56;101112.77;2178492;81;31271;-71
2022/03/09 04:09:28;;;;;;;85.07;39.08;;;;;;;-2.29;68.67;101106.66;2176177;81;33729;-72
2022/03/09 04:12:30;;;;;;;94.77;43.68;;;;;;;-2.27;68.79;101117.61;2180763;80;30288;-75
2022/03/09 04:15:33;;;;;;;84.32;40.28;;;;;;;-2.27;68.79;101117.20;2180961;80;27710;-79
2022/03/09 04:18:34;;;;;;;86.70;40.15;;;;;;;-2.25;68.90;101116.80;2173939;81;28657;-76
2022/03/09 04:21:36;;;;;;;88.42;42.25;;;;;;;-2.23;68.93;101120.30;2176710;80;31998;-73
2022/03/09 04:24:38;;;;;;;93.72;42.23;;;;;;;-2.19;69.09;101129.14;2213012;80;32929;-76
2022/03/09 04:27:40;;;;;;;85.75;40.58;;;;;;;-2.15;69.22;101133.14;2223854;79;30114;-77
2022/03/09 04:30:42;;;;;;;84.25;39.53;;;;;;;-2.08;69.31;101139.38;2198601;80;27762;-78
2022/03/09 04:33:44;;;;;;;86.82;40.30;;;;;;;-2.01;69.41;101137.72;2187716;80;29437;-74
2022/03/09 04:36:45;;;;;;;83.33;39.35;;;;;;;-1.92;69.48;101142.23;2181320;81;30998;-71
2022/03/09 04:39:48;;;;;;;84.10;39.42;;;;;;;-1.84;69.54;101139.31;2176849;81;33754;-71
2022/03/09 04:42:50;;;;;;;88.50;40.90;;;;;;;-1.77;69.53;101137.66;2177026;80;29490;-70
2022/03/09 04:45:52;;;;;;;80.57;39.48;;;;;;;-1.69;69.54;101136.91;2179672;81;27516;-72
2022/03/09 04:48:54;;;;;;;83.45;41.05;;;;;;;-1.61;69.55;101133.48;2176604;81;29615;-72
2022/03/09 04:51:56;;;;;;;81.05;39.58;;;;;;;-1.54;69.56;101136.22;2176501;81;31008;-72
2022/03/09 04:54:58;;;;;;;78.02;37.05;;;;;;;-1.46;69.53;101128.88;2177868;80;33701;-73
2022/03/09 04:58:00;;;;;;;76.47;36.13;;;;;;;-1.38;69.56;101137.73;2166064;81;29919;-72
2022/03/09 05:01:01;;;;;;;72.15;34.30;;;;;;;-1.31;69.61;101139.59;2144802;81;27603;-71
2022/03/09 05:04:03;;;;;;;74.40;34.08;;;;;;;-1.23;69.61;101138.37;2202433;80;29462;-72
2022/03/09 05:07:05;;;;;;;74.62;35.08;;;;;;;-1.16;69.63;101138.02;2190018;80;30992;-73
2022/03/09 05:10:09;;;;;;;72.08;33.45;;;;;;;-1.09;69.59;101141.18;2175609;81;34204;-71
2022/03/09 05:13:10;;;;;;;71.02;33.80;;;;;;;-1.04;69.53;101139.47;2177444;80;29309;-71
2022/03/09 05:16:12;;;;;;;63.75;32.83;;;;;;;-0.97;69.51;101140.41;2176514;81;27794;-72
2022/03/09 05:19:14;;;;;;;66.00;33.02;;;;;;;-0.90;69.54;101138.73;2181233;81;29485;-70
2022/03/09 05:22:16;;;;;;;68.97;34.27;;;;;;;-0.85;69.46;101145.84;2202312;79;31209;-71
2022/03/09 05:25:18;;;;;;;71.02;33.70;;;;;;;-0.79;69.44;101150.28;2226780;79;32970;-71
2022/03/09 05:28:20;;;;;;;66.65;31.93;;;;;;;-0.74;69.38;101152.51;2226657;79;29378;-71
2022/03/09 05:31:21;;;;;;;67.78;31.90;;;;;;;-0.68;69.39;101150.41;2222952;79;27683;-74
2022/03/09 05:34:23;;;;;;;66.95;33.65;;;;;;;-0.63;69.37;101149.58;2187910;80;29647;-71
2022/03/09 05:37:28;;;;;;;60.50;29.95;;;;;;;-0.57;69.37;101147.44;2188008;80;31092;-72
2022/03/09 05:40:29;;;;;;;61.42;29.52;;;;;;;-0.50;69.38;101157.59;2187880;80;32961;-72
2022/03/09 05:43:31;;;;;;;68.75;31.30;;;;;;;-0.45;69.33;101157.20;2219077;79;29422;-71
2022/03/09 05:46:33;;;;;;;61.37;30.05;;;;;;;-0.38;69.31;101160.33;2227336;79;27676;-71
2022/03/09 05:49:35;;;;;;;62.62;28.98;;;;;;;-0.31;69.26;101162.58;2227241;79;28625;-72
2022/03/09 05:52:37;;;;;;;61.53;29.27;;;;;;;-0.23;69.25;101166.18;2209863;79;31803;-73
2022/03/09 05:55:38;;;;;;;65.25;30.43;;;;;;;-0.16;69.23;101173.25;2188002;81;33006;-72
2022/03/09 05:58:40;;;;;;;61.80;29.85;;;;;;;-0.06;69.16;101171.58;2188049;80;30001;-70
2022/03/09 06:01:42;;;;;;;60.48;29.98;;;;;;;0.03;69.18;101179.13;2188234;79;27666;-72
2022/03/09 06:04:45;;;;;;;55.75;28.92;;;;;;;0.13;69.21;101176.99;2187333;79;29523;-72
2022/03/09 06:07:46;;;;;;;54.42;28.85;;;;;;;0.23;69.14;101181.90;2183659;81;31052;-72
2022/03/09 06:10:48;;;;;;;60.58;28.83;;;;;;;0.35;69.08;101187.70;2164119;81;32931;-72
2022/03/09 06:13:50;;;;;;;58.00;30.25;;;;;;;0.45;69.09;101186.46;2201068;79;29415;-72
2022/03/09 06:16:52;;;;;;;58.85;31.60;;;;;;;0.58;69.00;101194.44;2183590;81;27789;-71
2022/03/09 06:19:54;;;;;;;56.37;30.75;;;;;;;0.70;68.95;101189.23;2175999;81;28779;-71
2022/03/09 06:22:56;;;;;;;58.33;29.67;;;;;;;0.84;68.85;101192.37;2200718;80;31058;-72
2022/03/09 06:26:01;;;;;;;56.33;27.60;;;;;;;0.96;68.71;101187.59;2224029;80;33044;-72
2022/03/09 06:29:04;;;;;;;56.25;29.75;;;;;;;1.11;68.64;101188.97;2224064;80;30122;-71
2022/03/09 06:32:08;;;;;;;61.83;30.60;;;;;;;1.24;68.44;101188.59;2214460;80;27649;-71
2022/03/09 06:35:11;;;;;;;62.20;31.62;;;;;;;1.38;68.23;101191.70;2181176;81;28235;-70
2022/03/09 06:38:12;;;;;;;55.65;29.07;;;;;;;1.49;68.04;101194.81;2181143;81;31787;-71
2022/03/09 06:41:14;;;;;;;72.10;35.03;;;;;;;1.58;67.85;101196.59;2181101;81;33813;-73
2022/03/09 06:44:17;;;;;;;81.75;41.45;;;;;;;1.68;67.71;101198.81;2220892;80;29338;-71
2022/03/09 06:47:19;;;;;;;69.45;35.08;;;;;;;1.80;67.61;101193.55;2223791;79;27691;-71
2022/03/09 06:50:21;;;;;;;78.97;42.08;;;;;;;1.85;67.25;101197.50;2223798;80;28649;-70
2022/03/09 06:53:23;;;;;;;77.95;37.53;;;;;;;1.92;67.11;101201.92;2196975;80;30992;-72
2022/03/09 06:56:25;;;;;;;69.35;35.50;;;;;;;1.97;66.82;101208.53;2181203;81;32946;-71
2022/03/09 06:59:27;;;;;;;70.20;35.28;;;;;;;2.07;66.84;101207.64;2181114;81;30148;-71
2022/03/09 07:02:29;;;;;;;59.42;31.25;;;;;;;2.23;66.63;101206.34;2179169;80;27720;-71
2022/03/09 07:05:31;;;;;;;62.05;30.95;;;;;;;2.49;66.58;101199.67;2180292;81;28700;-71
2022/03/09 07:08:34;;;;;;;61.55;32.38;;;;;;;2.85;66.40;101191.67;2176428;81;31033;-70
2022/03/09 07:11:36;;;;;;;62.05;31.23;;;;;;;3.20;66.14;101184.03;2180653;80;32816;-70
2022/03/09 07:14:38;;;;;;;55.90;30.08;;;;;;;3.52;65.71;101190.92;2198853;80;29932;-69
2022/03/09 07:17:40;;;;;;;64.58;32.45;;;;;;;3.87;65.51;101185.84;2181376;81;27694;-72
2022/03/09 07:20:42;;;;;;;67.20;33.63;;;;;;;4.24;65.15;101184.17;2187644;81;29549;-70
2022/03/09 07:23:44;;;;;;;58.55;31.25;;;;;;;4.62;64.73;101180.73;2212844;80;31051;-70
2022/03/09 07:26:46;;;;;;;58.45;29.40;;;;;;;4.97;64.42;101184.73;2224548;80;32775;-72
2022/03/09 07:29:48;;;;;;;57.08;28.55;;;;;;;5.34;63.98;101171.45;2224626;79;29993;-70
2022/03/09 07:32:49;;;;;;;56.00;26.30;;;;;;;5.68;63.48;101172.30;2211073;79;28362;-72
2022/03/09 07:35:51;;;;;;;49.40;27.22;;;;;;;6.02;63.22;101167.80;2188214;80;28794;-72
2022/03/09 07:38:53;;;;;;;44.80;24.35;;;;;;;6.36;62.36;101172.97;2188142;81;31023;-72
2022/03/09 07:41:56;;;;;;;44.73;24.80;;;;;;;6.68;61.82;101172.39;2190372;80;33596;-71
2022/03/09 07:44:58;;;;;;;43.02;23.62;;;;;;;6.98;61.50;101169.11;2223284;79;29319;-71
2022/03/09 07:48:00;;;;;;;48.23;26.07;;;;;;;7.22;60.96;101158.86;2183924;81;27576;-72
2022/03/09 07:51:02;;;;;;;51.65;27.45;;;;;;;7.50;60.63;101159.13;2183342;81;28713;-69
2022/03/09 07:54:06;;;;;;;51.13;28.92;;;;;;;7.74;60.09;101156.78;2188072;80;31008;-70
2022/03/09 07:57:08;;;;;;;49.67;27.13;;;;;;;7.98;60.05;101159.30;2188172;80;33103;-70
2022/03/09 08:00:11;;;;;;;41.53;23.38;;;;;;;8.26;59.51;101161.28;2188451;80;29519;-70
2022/03/09 08:03:13;;;;;;;42.03;24.63;;;;;;;8.55;59.28;101151.64;2204301;80;27558;-69
2022/03/09 08:06:15;;;;;;;41.10;21.85;;;;;;;8.85;58.61;101155.70;2224379;79;28920;-69
2022/03/09 08:09:17;;;;;;;39.20;20.75;;;;;;;9.10;57.91;101152.33;2219996;80;31102;-70
2022/03/09 08:12:19;;;;;;;35.58;19.25;;;;;;;9.34;57.69;101148.03;2192659;80;33037;-70
2022/03/09 08:15:21;;;;;;;28.50;16.80;;;;;;;9.60;56.85;101144.12;2195853;79;29957;-71
2022/03/09 08:18:23;;;;;;;34.08;18.32;;;;;;;9.83;56.35;101146.91;2188347;80;27678;-70
2022/03/09 08:21:24;;;;;;;36.03;16.67;;;;;;;10.02;55.78;101142.29;2188533;81;29386;-69
2022/03/09 08:24:27;;;;;;;29.67;15.18;;;;;;;10.24;55.26;101139.75;2218138;80;31052;-70
2022/03/09 08:27:29;;;;;;;27.70;16.42;;;;;;;10.45;54.42;101138.63;2224661;80;33211;-68
2022/03/09 08:30:30;;;;;;;30.72;17.40;;;;;;;10.58;54.21;101137.73;2205679;79;29303;-71
2022/03/09 08:33:32;;;;;;;26.95;15.32;;;;;;;10.65;53.70;101141.91;2199624;80;27685;-71
2022/03/09 08:36:34;;;;;;;23.05;14.90;;;;;;;10.64;53.39;101146.86;2188476;81;28090;-70
2022/03/09 08:39:36;;;;;;;25.65;15.88;;;;;;;10.58;52.25;101147.11;2188527;81;31094;-71
2022/03/09 08:42:38;;;;;;;23.62;15.45;;;;;;;10.45;52.59;101156.89;2187325;80;32961;-70
2022/03/09 08:45:40;;;;;;;30.02;16.60;;;;;;;10.31;51.51;101167.19;2187884;80;28820;-70
2022/03/09 08:48:42;;;;;;;24.85;15.45;;;;;;;10.14;51.97;101167.30;2187860;80;27626;-70
2022/03/09 08:51:44;;;;;;;27.62;16.62;;;;;;;10.05;51.77;101166.28;2188282;80;28623;-72
2022/03/09 08:54:46;;;;;;;25.62;15.63;;;;;;;9.94;51.82;101161.73;2220332;80;31176;-69
2022/03/09 08:57:48;;;;;;;29.87;17.02;;;;;;;9.84;51.33;101154.02;2213195;80;32961;-70
2022/03/09 09:00:50;;;;;;;19.48;12.90;;;;;;;9.76;51.41;101155.20;2183899;81;29406;-70
2022/03/09 09:03:52;;;;;;;20.92;11.28;;;;;;;9.71;50.45;101156.21;2208077;80;27714;-69
2022/03/09 09:06:53;;;;;;;19.32;12.05;;;;;;;9.65;50.49;101156.88;2223814;79;28647;-70
2022/03/09 09:09:55;;;;;;;17.57;11.30;;;;;;;9.60;49.86;101154.83;2224214;80;31179;-70
2022/03/09 09:13:00;;;;;;;14.85;10.72;;;;;;;9.51;50.06;101155.99;2194789;80;33826;-70
2022/03/09 09:16:02;;;;;;;17.65;12.13;;;;;;;9.45;49.47;101153.02;2188606;80;33116;-70
2022/03/09 09:19:04;;;;;;;17.37;11.20;;;;;;;9.46;49.90;101153.44;2186158;80;27705;-72
2022/03/09 09:22:06;;;;;;;18.32;12.82;;;;;;;9.47;48.94;101149.84;2203484;80;28750;-70
2022/03/09 09:25:10;;;;;;;21.20;14.73;;;;;;;9.48;49.28;101152.08;2221344;80;31056;-70
2022/03/09 09:28:13;;;;;;;16.70;11.33;;;;;;;9.48;49.12;101136.88;2181134;81;33809;-70
2022/03/09 09:31:15;;;;;;;17.12;11.48;;;;;;;9.52;48.95;101160.39;2179653;80;29328;-70
2022/03/09 09:34:17;;;;;;;19.30;11.45;;;;;;;9.45;48.32;101160.19;2181073;81;27682;-72
2022/03/09 09:37:19;;;;;;;16.95;11.22;;;;;;;9.32;48.43;101161.91;2181306;81;28703;-71
2022/03/09 09:40:21;;;;;;;22.37;12.00;;;;;;;9.32;48.91;101162.35;2181365;81;31186;-72
2022/03/09 09:43:24;;;;;;;18.37;12.43;;;;;;;9.31;47.86;101165.50;2186059;80;32412;-69
2022/03/09 09:46:28;;;;;;;19.55;11.68;;;;;;;9.23;47.97;101155.05;2178855;81;30161;-69
2022/03/09 09:49:34;;;;;;;16.80;11.85;;;;;;;9.24;48.44;101155.45;2176872;81;27592;-69
2022/03/09 09:52:34;;;;;;;19.48;11.90;;;;;;;9.31;48.55;101156.14;2179917;80;28939;-69
2022/03/09 09:55:36;;;;;;;18.77;11.70;;;;;;;9.38;48.62;101152.81;2181246;81;31087;-69
2022/03/09 09:58:38;;;;;;;23.20;11.97;;;;;;;9.45;47.84;101160.19;2181229;81;33111;-69
2022/03/09 10:01:41;;;;;;;16.93;10.38;;;;;;;9.46;47.95;101163.28;2151443;80;29372;-69
2022/03/09 10:04:43;;;;;;;23.85;10.55;;;;;;;9.43;47.51;101165.13;2223505;80;27688;-70
2022/03/09 10:08:07;;;;;;;18.27;9.18;;;;;;;9.37;46.65;101169.30;2223783;79;29670;-70
2022/03/09 10:11:08;;;;;;;15.48;10.68;;;;;;;9.32;47.23;101165.92;2139371;82;32218;-70
2022/03/09 10:14:11;;;;;;;14.53;9.80;;;;;;;9.25;47.21;101162.56;2103242;82;32458;-70
2022/03/09 10:17:18;;;;;;;14.80;10.13;;;;;;;9.17;46.99;101158.36;2103164;84;30341;-70
2022/03/09 10:20:23;;;;;;;14.95;9.85;;;;;;;9.14;46.90;101160.64;2099496;83;27765;-70
2022/03/09 10:23:25;;;;;;;16.80;10.28;;;;;;;9.06;46.21;101157.34;2130811;83;28693;-70
2022/03/09 10:26:31;;;;;;;14.53;9.75;;;;;;;8.95;46.55;101158.52;2134264;83;31261;-69
2022/03/09 10:29:33;;;;;;;16.05;10.50;;;;;;;8.95;46.81;101159.84;2135572;83;33102;-69
2022/03/09 10:32:48;;;;;;;16.12;10.45;;;;;;;8.93;46.52;101155.04;2114040;83;29376;-70
2022/03/09 10:35:50;;;;;;;15.28;10.08;;;;;;;8.89;46.29;101150.69;2096856;84;27796;-70
2022/03/09 10:38:56;;;;;;;16.30;10.43;;;;;;;8.86;46.42;101156.56;2099432;84;28900;-70
2022/03/09 10:41:58;;;;;;;19.65;11.53;;;;;;;8.80;45.94;101154.50;2108524;83;31107;-69
2022/03/09 10:45:07;;;;;;;15.95;10.23;;;;;;;8.84;46.80;101154.42;2135518;83;34265;-70
2022/03/09 10:48:09;;;;;;;16.12;11.22;;;;;;;8.86;46.02;101144.54;2171128;81;29371;-70
2022/03/09 10:51:10;;;;;;;15.88;10.13;;;;;;;8.87;46.51;101151.19;2181314;81;27667;-70
2022/03/09 10:54:16;;;;;;;16.75;10.68;;;;;;;8.90;46.35;101141.76;2147605;81;29743;-70
2022/03/09 10:57:18;;;;;;;25.82;14.20;;;;;;;8.92;46.22;101151.95;2147114;82;31045;-70
2022/03/09 11:00:42;;;;;;;23.70;13.38;;;;;;;8.95;46.59;101149.16;2146276;82;32965;-70
2022/03/09 11:03:46;;;;;;;14.90;10.68;;;;;;;8.99;46.39;101141.95;2114294;81;29523;-69
2022/03/09 11:06:48;;;;;;;16.70;11.45;;;;;;;9.02;46.34;101137.83;2110249;83;28029;-69
2022/03/09 11:09:49;;;;;;;16.35;11.18;;;;;;;9.04;46.12;101138.66;2111046;84;28632;-69
2022/03/09 11:12:52;;;;;;;20.20;11.93;;;;;;;8.97;44.70;101135.77;2159530;81;31002;-68
2022/03/09 11:15:54;;;;;;;20.17;12.20;;;;;;;8.88;45.52;101137.36;2185135;81;33110;-69
2022/03/09 11:18:57;;;;;;;18.92;12.55;;;;;;;8.86;46.02;101138.75;2161852;80;30109;-69
2022/03/09 11:21:59;;;;;;;18.62;12.30;;;;;;;8.89;46.28;101127.09;2184882;80;27694;-69
2022/03/09 11:25:01;;;;;;;21.50;12.68;;;;;;;8.92;45.55;101137.69;2185043;80;28743;-69
2022/03/09 11:28:04;;;;;;;19.17;11.63;;;;;;;8.91;45.86;101139.95;2184413;80;31787;-69
2022/03/09 11:31:16;;;;;;;24.87;14.30;;;;;;;8.94;45.99;101129.17;2186393;80;32955;-69
2022/03/09 11:34:43;;;;;;;22.07;12.85;;;;;;;8.96;46.33;101129.53;2220813;80;29337;-70
2022/03/09 11:37:44;;;;;;;20.10;11.97;;;;;;;8.99;45.81;101133.94;2211678;80;27657;-70
2022/03/09 11:41:26;;;;;;;20.10;12.90;;;;;;;8.98;45.57;101136.19;2185121;81;28617;-70
2022/03/09 11:44:29;;;;;;;21.40;12.10;;;;;;;8.91;45.12;101135.50;2184956;80;31822;-70
2022/03/09 11:47:53;;;;;;;18.67;11.83;;;;;;;8.86;45.26;101129.84;2184963;80;33821;-70
2022/03/09 11:51:06;;;;;;;18.55;11.63;;;;;;;8.83;45.09;101129.48;2161892;81;30144;-70
2022/03/09 11:54:09;;;;;;;18.25;11.70;;;;;;;8.79;45.10;101130.48;2159630;81;27706;-71
2022/03/09 11:57:17;;;;;;;22.20;12.85;;;;;;;8.77;44.49;101129.20;2178143;81;28266;-71
2022/03/09 12:00:20;;;;;;;18.50;11.73;;;;;;;8.75;44.88;101129.70;2185121;81;31049;-70
2022/03/09 12:03:40;;;;;;;16.67;11.22;;;;;;;8.72;43.63;101120.44;2212352;80;33596;-71
2022/03/09 12:06:43;;;;;;;20.23;11.85;;;;;;;8.72;44.16;101116.91;2220742;80;29373;-70
2022/03/09 12:10:05;;;;;;;18.42;12.37;;;;;;;8.72;44.64;101116.43;2207261;80;27629;-70
2022/03/09 12:13:36;;;;;;;18.15;12.90;;;;;;;8.73;44.12;101119.52;2185312;80;29472;-70
2022/03/09 12:16:43;;;;;;;18.62;12.30;;;;;;;8.74;44.77;101111.92;2133788;83;31045;-70
2022/03/09 12:20:24;;;;;;;18.62;12.35;;;;;;;8.74;44.68;101115.93;2129447;82;33036;-70
2022/03/09 12:23:26;;;;;;;19.15;11.18;;;;;;;8.74;44.85;101111.06;2126718;82;29331;-70
2022/03/09 12:26:47;;;;;;;21.62;12.30;;;;;;;8.75;43.21;101107.00;2135035;83;27991;-69
2022/03/09 12:29:49;;;;;;;19.73;12.13;;;;;;;8.72;43.14;101115.57;2091074;85;28668;-71
2022/03/09 12:32:51;;;;;;;16.45;11.53;;;;;;;8.65;43.24;101107.72;2082199;85;31102;-71
2022/03/09 12:36:12;;;;;;;18.10;12.37;;;;;;;8.61;43.29;101103.38;2115560;84;33793;-71
2022/03/09 12:39:15;;;;;;;14.53;10.72;;;;;;;8.61;42.50;101104.71;2133051;82;30163;-69
2022/03/09 12:42:18;;;;;;;19.05;11.18;;;;;;;8.64;42.84;101099.77;2126985;83;27680;-71
2022/03/09 12:45:20;;;;;;;21.05;13.18;;;;;;;8.70;43.55;101092.02;2121301;83;29422;-70
2022/03/09 12:48:23;;;;;;;17.00;11.20;;;;;;;8.75;43.42;101091.45;2113983;82;30988;-69
2022/03/09 12:51:25;;;;;;;17.48;9.88;;;;;;;8.79;43.50;101083.28;2120525;83;33755;-71
2022/03/09 12:54:37;;;;;;;18.42;10.15;;;;;;;8.87;43.23;101087.51;2121430;83;29316;-72
2022/03/09 12:57:39;;;;;;;17.62;10.25;;;;;;;8.89;43.29;101085.23;2147019;81;27737;-71
2022/03/09 13:00:41;;;;;;;16.20;10.18;;;;;;;8.90;42.46;101082.97;2180208;81;28630;-69
2022/03/09 13:03:45;;;;;;;15.68;10.10;;;;;;;8.90;42.43;101084.30;2110094;81;31821;-70
2022/03/09 13:06:46;;;;;;;17.85;11.22;;;;;;;8.91;42.09;101082.50;2115635;82;32996;-70
2022/03/09 13:09:48;;;;;;;15.18;9.83;;;;;;;8.86;40.72;101090.66;2153361;81;29401;-71
2022/03/09 13:12:56;;;;;;;16.30;10.10;;;;;;;8.82;41.29;101087.66;2135142;82;27691;-69
2022/03/09 13:16:03;;;;;;;18.48;10.70;;;;;;;8.82;41.35;101084.98;2154054;82;30738;-71
2022/03/09 13:19:05;;;;;;;19.05;11.83;;;;;;;8.83;41.54;101081.39;2129473;82;30980;-71
2022/03/09 13:22:07;;;;;;;17.85;10.65;;;;;;;8.86;41.18;101087.09;2141952;82;33904;-70
2022/03/09 13:25:09;;;;;;;18.73;10.08;;;;;;;8.89;40.62;101087.01;2126203;83;30270;-71
2022/03/09 13:28:11;;;;;;;17.05;9.45;;;;;;;8.90;40.95;101091.43;2123180;83;27888;-70
2022/03/09 13:31:19;;;;;;;15.55;9.65;;;;;;;8.87;39.89;101091.52;2102432;84;28859;-70
2022/03/09 13:34:29;;;;;;;16.30;10.00;;;;;;;8.85;40.73;101086.23;2133763;82;31106;-68
2022/03/09 13:37:41;;;;;;;17.42;10.40;;;;;;;8.84;40.82;101083.14;2140906;82;33892;-69
2022/03/09 13:40:46;;;;;;;15.35;8.90;;;;;;;8.84;41.35;101087.15;2142783;82;28706;-70
2022/03/09 13:43:48;;;;;;;14.43;9.25;;;;;;;8.87;41.19;101082.16;2126113;83;27788;-70
2022/03/09 13:47:09;;;;;;;11.63;8.70;;;;;;;8.90;40.27;101084.75;2137719;82;28643;-70
2022/03/09 13:50:35;;;;;;;14.85;9.08;;;;;;;8.91;41.19;101082.50;2158329;82;31143;-70
2022/03/09 13:53:40;;;;;;;11.88;8.28;;;;;;;8.92;40.94;101076.23;2157313;82;33850;-69
2022/03/09 13:56:42;;;;;;;;;;;;;;;8.90;40.57;101077.63;2160338;82;29555;-70
2022/03/09 13:59:44;;;;;;;15.32;9.03;;;;;;;8.86;39.91;101080.41;2133446;81;27711;-69
2022/03/09 14:02:46;;;;;;;13.00;8.68;;;;;;;8.80;40.69;101081.03;2124734;83;29294;-70